createdAt,value
2019-04-01T00:04:51.283Z,5.80
2019-04-01T00:09:57.131Z,5.73
2019-04-01T00:15:06.053Z,5.77
2019-04-01T00:20:12.896Z,5.73
2019-04-01T00:25:18.864Z,5.67
2019-04-01T00:30:24.849Z,6.03
2019-04-01T00:35:30.816Z,5.80
2019-04-01T00:40:36.836Z,5.20
2019-04-01T00:45:46.972Z,6.07
2019-04-01T00:50:53.121Z,5.53
2019-04-01T00:55:58.983Z,5.90
2019-04-01T01:01:05.204Z,5.97
2019-04-01T01:06:11.020Z,6.33
2019-04-01T01:11:16.960Z,5.40
2019-04-01T01:16:22.884Z,5.60
2019-04-01T01:21:28.745Z,6.10
2019-04-01T01:26:34.822Z,5.23
2019-04-01T01:31:40.718Z,5.47
2019-04-01T01:36:46.780Z,6.57
2019-04-01T01:41:52.639Z,5.93
2019-04-01T01:46:58.529Z,5.97
2019-04-01T01:52:04.387Z,5.80
2019-04-01T01:57:10.361Z,6.30
2019-04-01T02:02:16.139Z,5.80
2019-04-01T02:07:22.093Z,6.20
2019-04-01T02:12:28.025Z,5.50
2019-04-01T02:17:33.882Z,5.57
2019-04-01T02:22:40.075Z,5.70
2019-04-01T02:27:46.356Z,5.00
2019-04-01T02:32:52.585Z,4.90
2019-04-01T02:37:58.682Z,6.50
2019-04-01T02:43:04.733Z,5.30
2019-04-01T02:48:10.599Z,4.90
2019-04-01T02:53:16.488Z,5.17
2019-04-01T02:58:22.521Z,4.63
2019-04-01T03:03:28.419Z,4.80
2019-04-01T03:08:35.422Z,4.77
2019-04-01T03:13:43.944Z,4.73
2019-04-01T03:18:50.017Z,4.13
2019-04-01T03:23:55.996Z,5.07
2019-04-01T03:29:01.867Z,4.00
2019-04-01T03:34:07.872Z,4.60
2019-04-01T03:39:14.737Z,5.27
2019-04-01T03:44:20.606Z,4.47
2019-04-01T03:49:27.542Z,4.47
2019-04-01T03:54:33.506Z,4.47
2019-04-01T03:59:39.443Z,4.67
2019-04-01T04:04:45.526Z,3.90
2019-04-01T04:09:51.406Z,6.20
2019-04-01T04:14:57.370Z,4.90
2019-04-01T04:20:03.265Z,4.63
2019-04-01T04:25:09.628Z,5.13
2019-04-01T04:30:19.700Z,4.80
2019-04-01T04:35:25.607Z,4.47
2019-04-01T04:40:31.495Z,4.43
2019-04-01T04:45:37.457Z,5.37
2019-04-01T04:50:43.421Z,4.60
2019-04-01T04:55:49.363Z,4.77
2019-04-01T05:00:55.285Z,4.50
2019-04-01T05:06:01.406Z,4.53
2019-04-01T05:11:08.540Z,4.57
2019-04-01T05:16:14.417Z,4.97
2019-04-01T05:21:20.374Z,4.40
2019-04-01T05:26:26.843Z,5.27
2019-04-01T05:31:34.470Z,4.00
2019-04-01T05:36:40.359Z,4.43
2019-04-01T05:41:46.477Z,3.90
2019-04-01T05:46:52.475Z,3.50
2019-04-01T05:51:58.601Z,4.63
2019-04-01T05:57:04.689Z,3.60
2019-04-01T06:02:10.841Z,5.07
2019-04-01T06:07:16.945Z,4.50
2019-04-01T06:12:24.217Z,4.50
2019-04-01T06:17:30.473Z,4.83
2019-04-01T06:22:36.331Z,4.10
2019-04-01T06:27:44.603Z,3.87
2019-04-01T06:32:50.669Z,5.50
2019-04-01T06:37:56.609Z,4.57
2019-04-01T06:43:02.475Z,3.07
2019-04-01T06:48:08.649Z,3.10
2019-04-01T06:53:14.779Z,3.00
2019-04-01T06:58:20.654Z,2.40
2019-04-01T07:03:26.642Z,2.63
2019-04-01T07:08:32.878Z,1.67
2019-04-01T07:13:40.207Z,1.40
2019-04-01T07:18:47.277Z,1.00
2019-04-01T07:23:53.587Z,0.90
2019-04-01T07:29:00.029Z,1.00
2019-04-01T07:34:07.240Z,1.10
2019-04-01T07:39:13.119Z,2.10
2019-04-01T07:44:19.195Z,2.13
2019-04-01T07:49:25.174Z,1.63
2019-04-01T07:54:31.244Z,1.60
2019-04-01T07:59:37.013Z,1.87
2019-04-01T08:04:43.633Z,1.10
2019-04-01T08:09:49.880Z,1.80
2019-04-01T08:14:55.955Z,2.13
2019-04-01T08:20:02.474Z,1.93
2019-04-01T08:25:08.618Z,1.37
2019-04-01T08:30:15.240Z,2.00
2019-04-01T08:35:21.281Z,2.10
2019-04-01T08:40:27.154Z,1.77
2019-04-01T08:45:33.390Z,2.00
2019-04-01T08:50:39.206Z,1.90
2019-04-01T08:55:45.369Z,1.80
2019-04-01T09:00:51.559Z,1.43
2019-04-01T09:05:57.433Z,1.83
2019-04-01T09:11:03.817Z,1.60
2019-04-01T09:16:09.677Z,2.03
2019-04-01T09:21:15.546Z,1.60
2019-04-01T09:26:21.423Z,1.60
2019-04-01T09:31:27.713Z,1.77
2019-04-01T09:36:33.470Z,2.00
2019-04-01T09:41:40.422Z,1.43
2019-04-01T09:46:49.036Z,1.43
2019-04-01T09:51:54.870Z,1.80
2019-04-01T09:57:00.844Z,1.47
2019-04-01T10:02:06.871Z,1.33
2019-04-01T10:07:12.784Z,1.03
2019-04-01T10:12:18.557Z,1.00
2019-04-01T10:17:24.601Z,1.30
2019-04-01T10:22:30.479Z,1.30
2019-04-01T10:27:36.678Z,0.77
2019-04-01T10:32:42.555Z,0.90
2019-04-01T10:37:48.608Z,0.80
2019-04-01T10:42:54.600Z,0.90
2019-04-01T10:48:00.840Z,0.90
2019-04-01T10:53:07.111Z,1.80
2019-04-01T10:58:13.055Z,1.30
2019-04-01T11:03:19.128Z,1.57
2019-04-01T11:08:25.405Z,1.50
2019-04-01T11:13:31.330Z,1.40
2019-04-01T11:18:37.336Z,1.30
2019-04-01T11:23:43.518Z,1.53
2019-04-01T11:28:49.388Z,1.20
2019-04-01T11:33:55.389Z,1.80
2019-04-01T11:39:01.338Z,1.43
2019-04-01T11:44:09.360Z,1.47
2019-04-01T11:49:15.201Z,1.67
2019-04-01T11:54:21.101Z,1.80
2019-04-01T11:59:28.139Z,1.43
2019-04-01T12:04:34.185Z,1.37
2019-04-01T12:09:40.190Z,1.33
2019-04-01T12:14:46.474Z,1.97
2019-04-01T12:19:56.242Z,1.73
2019-04-01T12:25:04.750Z,1.30
2019-04-01T12:30:10.798Z,1.40
2019-04-01T12:35:16.724Z,1.20
2019-04-01T12:40:22.677Z,1.60
2019-04-01T12:45:29.657Z,1.50
2019-04-01T12:50:35.636Z,1.10
2019-04-01T12:55:44.861Z,1.20
2019-04-01T13:00:49.306Z,1.80
2019-04-01T13:05:55.550Z,1.53
2019-04-01T13:11:01.395Z,1.40
2019-04-01T13:16:09.005Z,1.20
2019-04-01T13:21:14.850Z,1.57
2019-04-01T13:26:21.079Z,1.30
2019-04-01T13:31:26.843Z,1.03
2019-04-01T13:36:32.701Z,1.40
2019-04-01T13:41:42.687Z,1.47
2019-04-01T13:46:48.562Z,1.07
2019-04-01T13:51:54.208Z,1.60
2019-04-01T13:57:00.308Z,1.27
2019-04-01T14:02:06.448Z,1.07
2019-04-01T14:07:13.634Z,1.37
2019-04-01T14:12:19.697Z,1.60
2019-04-01T14:17:25.774Z,1.77
2019-04-01T14:22:31.878Z,2.13
2019-04-01T14:27:39.469Z,1.90
2019-04-01T14:32:45.846Z,1.60
2019-04-01T14:37:51.916Z,1.40
2019-04-01T14:42:57.891Z,1.33
2019-04-01T14:48:03.794Z,1.73
2019-04-01T14:53:10.210Z,1.53
2019-04-01T14:58:16.670Z,1.60
2019-04-01T15:03:22.542Z,2.17
2019-04-01T15:08:28.579Z,1.40
2019-04-01T15:13:36.502Z,1.13
2019-04-01T15:18:42.405Z,1.20
2019-04-01T15:23:48.281Z,1.77
2019-04-01T15:28:54.259Z,1.70
2019-04-01T15:34:00.131Z,2.17
2019-04-01T15:39:08.612Z,1.87
2019-04-01T15:44:14.417Z,1.47
2019-04-01T15:49:20.824Z,1.50
2019-04-01T15:54:26.805Z,1.40
2019-04-01T15:59:32.695Z,1.50
2019-04-01T16:04:38.691Z,1.40
2019-04-01T16:09:44.665Z,1.70
2019-04-01T16:14:50.538Z,1.77
2019-04-01T16:19:57.319Z,1.80
2019-04-01T16:25:04.750Z,2.30
2019-04-01T16:30:10.851Z,2.60
2019-04-01T16:35:16.712Z,1.93
2019-04-01T16:40:22.595Z,2.07
2019-04-01T16:45:28.898Z,2.23
2019-04-01T16:50:34.952Z,2.07
2019-04-01T16:55:40.798Z,2.93
2019-04-01T17:00:46.722Z,3.00
2019-04-01T17:05:53.814Z,2.90
2019-04-01T17:10:59.792Z,3.43
2019-04-01T17:16:06.006Z,2.50
2019-04-01T17:21:11.975Z,2.60
2019-04-01T17:26:17.920Z,2.97
2019-04-01T17:31:23.829Z,3.40
2019-04-01T17:36:29.688Z,3.07
2019-04-01T17:41:35.916Z,4.03
2019-04-01T17:46:41.952Z,3.93
2019-04-01T17:51:49.482Z,4.60
2019-04-01T17:56:55.540Z,4.03
2019-04-01T18:02:01.504Z,4.80
2019-04-01T18:07:07.555Z,3.53
2019-04-01T18:12:13.813Z,3.03
2019-04-01T18:17:19.939Z,2.20
2019-04-01T18:22:25.753Z,2.30
2019-04-01T18:27:31.549Z,2.87
2019-04-01T18:32:37.552Z,2.70
2019-04-01T18:37:44.551Z,2.30
2019-04-01T18:42:50.466Z,2.67
2019-04-01T18:47:56.307Z,2.73
2019-04-01T18:53:02.350Z,2.83
2019-04-01T18:58:08.351Z,4.27
2019-04-01T19:03:14.729Z,5.43
2019-04-01T19:08:20.603Z,2.60
2019-04-01T19:13:26.611Z,2.93
2019-04-01T19:18:32.550Z,2.53
2019-04-01T19:23:38.415Z,2.40
2019-04-01T19:28:44.381Z,3.10
2019-04-01T19:33:50.260Z,3.13
2019-04-01T19:38:56.245Z,2.70
2019-04-01T19:44:02.190Z,3.53
2019-04-01T19:49:08.020Z,3.07
2019-04-01T19:54:14.313Z,3.30
2019-04-01T19:59:21.197Z,3.07
2019-04-01T20:04:27.961Z,2.87
2019-04-01T20:09:34.129Z,3.00
2019-04-01T20:14:40.438Z,3.03
2019-04-01T20:19:46.511Z,2.57
2019-04-01T20:24:52.408Z,3.37
2019-04-01T20:29:58.351Z,3.60
2019-04-01T20:35:05.376Z,3.80
2019-04-01T20:40:11.710Z,3.40
2019-04-01T20:45:18.590Z,3.80
2019-04-01T20:50:24.683Z,2.67
2019-04-01T20:55:32.200Z,3.30
2019-04-01T21:00:38.238Z,3.27
2019-04-01T21:05:44.679Z,3.37
2019-04-01T21:10:50.545Z,3.07
2019-04-01T21:15:56.445Z,3.37
2019-04-01T21:21:02.507Z,3.27
2019-04-01T21:26:08.428Z,3.20
2019-04-01T21:31:14.311Z,3.20
2019-04-01T21:36:20.243Z,3.63
2019-04-01T21:41:26.175Z,3.00
2019-04-01T21:46:32.339Z,3.40
2019-04-01T21:51:38.409Z,3.50
2019-04-01T21:56:44.173Z,2.80
2019-04-01T22:01:50.045Z,4.07
2019-04-01T22:06:56.141Z,4.03
2019-04-01T22:12:01.994Z,2.77
2019-04-01T22:17:08.174Z,3.43
2019-04-01T22:22:13.952Z,2.80
2019-04-01T22:27:19.920Z,2.97
2019-04-01T22:32:25.788Z,3.17
2019-04-01T22:37:31.770Z,3.00
2019-04-01T22:42:37.639Z,3.50
2019-04-01T22:47:45.336Z,3.40
2019-04-01T22:52:51.113Z,3.13
2019-04-01T22:57:57.086Z,3.33
2019-04-01T23:03:02.935Z,3.00
2019-04-01T23:08:08.980Z,3.20
2019-04-01T23:13:14.818Z,3.23
2019-04-01T23:18:21.064Z,3.30
2019-04-01T23:23:28.159Z,3.23
2019-04-01T23:28:34.265Z,3.23
2019-04-01T23:33:41.807Z,2.97
2019-04-01T23:38:47.785Z,3.30
2019-04-01T23:43:54.197Z,3.90
2019-04-01T23:49:01.027Z,3.10
2019-04-01T23:54:08.031Z,3.40
2019-04-01T23:59:14.040Z,3.37
